createdAt,value
2022-08-21T00:03:42.368Z,100
2022-08-21T00:13:19.961Z,100
2022-08-21T00:22:57.351Z,100
2022-08-21T00:32:34.312Z,100
2022-08-21T00:42:11.068Z,100
2022-08-21T00:51:47.984Z,100
2022-08-21T01:01:25.211Z,100
2022-08-21T01:11:02.236Z,100
2022-08-21T01:20:38.999Z,100
2022-08-21T01:30:15.670Z,100
2022-08-21T01:39:52.895Z,100
2022-08-21T01:49:29.731Z,100
2022-08-21T01:59:07.118Z,100
2022-08-21T02:08:44.585Z,100
2022-08-21T02:18:21.523Z,100
2022-08-21T02:27:58.705Z,100
2022-08-21T02:37:35.467Z,100
2022-08-21T02:47:12.605Z,100
2022-08-21T02:56:49.673Z,100
2022-08-21T03:06:26.376Z,100
2022-08-21T03:16:04.128Z,100
2022-08-21T03:25:41.186Z,100
2022-08-21T03:35:18.140Z,100
2022-08-21T03:44:55.406Z,100
2022-08-21T03:54:32.232Z,100
2022-08-21T04:04:09.837Z,100
2022-08-21T04:13:47.443Z,100
2022-08-21T04:23:25.122Z,100
2022-08-21T04:33:02.277Z,100
2022-08-21T04:42:39.539Z,100
2022-08-21T04:52:16.725Z,100
2022-08-21T05:01:54.200Z,100
2022-08-21T05:11:31.744Z,100
2022-08-21T05:21:09.227Z,100
2022-08-21T05:30:47.014Z,100
2022-08-21T05:40:24.925Z,100
2022-08-21T05:50:02.118Z,100
2022-08-21T05:59:39.706Z,100
2022-08-21T06:09:17.388Z,100
2022-08-21T06:18:56.676Z,100
2022-08-21T06:28:32.163Z,100
2022-08-21T06:38:10.278Z,100
2022-08-21T06:47:48.166Z,100
2022-08-21T06:57:25.918Z,100
2022-08-21T07:07:04.594Z,99.36
2022-08-21T07:26:22.895Z,95.28
2022-08-21T07:36:00.970Z,92.33
2022-08-21T07:45:38.867Z,91.13
2022-08-21T07:55:16.221Z,91.42
2022-08-21T08:04:54.659Z,88.4
2022-08-21T08:14:31.739Z,88.02
2022-08-21T08:24:17.960Z,86.91
2022-08-21T08:33:46.944Z,85.41
2022-08-21T08:43:24.835Z,84.05
2022-08-21T08:53:02.748Z,78.49
2022-08-21T09:02:41.014Z,77.64
2022-08-21T09:12:19.161Z,74.94
2022-08-21T09:21:59.790Z,75.43
2022-08-21T09:31:38.674Z,70.84
2022-08-21T09:41:19.148Z,63.81
2022-08-21T09:50:57.306Z,60.34
2022-08-21T10:10:30.139Z,52.94
2022-08-21T10:29:57.321Z,48.42
2022-08-21T10:39:36.993Z,49.05
2022-08-21T10:49:14.735Z,47.71
2022-08-21T10:58:44.912Z,45.42
2022-08-21T11:08:27.583Z,44.8
2022-08-21T11:18:12.278Z,42.1
2022-08-21T11:27:52.686Z,43.63
2022-08-21T11:47:15.806Z,40.49
2022-08-21T11:56:36.085Z,44.52
2022-08-21T12:06:07.392Z,44.05
2022-08-21T12:15:36.525Z,43.58
2022-08-21T12:25:10.214Z,43.57
2022-08-21T12:35:00.871Z,41.8
2022-08-21T12:44:55.680Z,42.36
2022-08-21T12:54:39.534Z,34.72
2022-08-21T13:04:20.864Z,32.38
2022-08-21T13:14:01.200Z,34.01
2022-08-21T13:23:20.691Z,35.64
2022-08-21T13:32:52.923Z,34.22
2022-08-21T13:42:35.312Z,32.6
2022-08-21T13:52:16.470Z,34.14
2022-08-21T14:11:37.642Z,33.62
2022-08-21T14:30:46.413Z,34.92
2022-08-21T14:40:26.879Z,35.68
2022-08-21T14:50:08.572Z,33.82
2022-08-21T14:59:48.824Z,33
2022-08-21T15:09:21.510Z,32.48
2022-08-21T15:18:57.074Z,34.19
2022-08-21T15:37:55.319Z,37.84
2022-08-21T15:47:28.655Z,36.28
2022-08-21T15:57:05.241Z,36.26
2022-08-21T16:06:53.392Z,39.31
2022-08-21T16:16:14.439Z,38.88
2022-08-21T16:25:49.352Z,40.83
2022-08-21T16:35:24.451Z,40.66
2022-08-21T16:45:00.499Z,41.18
2022-08-21T16:54:37.219Z,41.76
2022-08-21T17:04:13.916Z,43.41
2022-08-21T17:13:50.554Z,42.1
2022-08-21T17:23:27.337Z,42.54
2022-08-21T17:33:04.123Z,46.47
2022-08-21T17:42:40.955Z,47.06
2022-08-21T17:52:16.841Z,48.72
2022-08-21T18:01:53.511Z,49.98
2022-08-21T18:11:30.753Z,52.41
2022-08-21T18:21:06.831Z,57.53
2022-08-21T18:30:42.966Z,61.69
2022-08-21T18:40:19.226Z,62.07
2022-08-21T18:49:55.376Z,64.23
2022-08-21T18:59:31.125Z,65.74
2022-08-21T19:09:07.410Z,69.2
2022-08-21T19:18:44.079Z,71.19
2022-08-21T19:28:20.569Z,74.83
2022-08-21T19:37:57.160Z,76.77
2022-08-21T19:47:33.236Z,78.25
2022-08-21T19:57:10.014Z,77.55
2022-08-21T20:06:46.523Z,78.31
2022-08-21T20:16:23.164Z,79.13
2022-08-21T20:25:59.817Z,79.75
2022-08-21T20:35:36.509Z,80.84
2022-08-21T20:45:13.684Z,80.44
2022-08-21T20:54:50.448Z,81.69
2022-08-21T21:04:27.318Z,81.93
2022-08-21T21:14:05.155Z,83.67
2022-08-21T21:23:41.242Z,84.45
2022-08-21T21:33:17.969Z,84.73
2022-08-21T21:42:54.996Z,85.72
2022-08-21T21:52:31.945Z,86.03
2022-08-21T22:02:09.020Z,86.4
2022-08-21T22:11:45.901Z,87.55
2022-08-21T22:21:24.027Z,87.65
2022-08-21T22:30:59.759Z,88.05
2022-08-21T22:40:36.530Z,89.23
2022-08-21T22:50:13.564Z,90.13
2022-08-21T22:59:50.838Z,90.62
2022-08-21T23:09:28.155Z,91.64
2022-08-21T23:19:05.631Z,91.72
2022-08-21T23:28:43.725Z,91.3
2022-08-21T23:38:19.540Z,92.24
2022-08-21T23:47:56.056Z,92.52
2022-08-21T23:57:33.064Z,92.49
